Bookmark and Share
Track history (hours):
 

Basuto

Last reported at 2013-Mar-26 12:12 UTC. Time now 2014-Apr-17 15:44 UTC.
Position N 25°44' W 079°36'.
Warning: this ship's position is years out of date!

Length 158 m; draft 8.5 m.

Type: Ship (hazmat cat A). MMSI: 565144000.

NotesDate/timePositionNaut miles runAvg speedWind from/ knotsBaromVisibWave heightAir tempDewpointWater temp
2013-Mar-26 12:12N 25°44' W 079°36'812.2
2013-Mar-26 11:33N 25°52' W 079°35'1212.2
2013-Mar-26 10:33N 26°04' W 079°33'1212.0
2013-Mar-26 09:33N 26°16' W 079°33'1211.8
2013-Mar-26 08:33N 26°28' W 079°32'1311.7
2013-Mar-26 07:26N 26°40' W 079°30'2311.8
2013-Mar-26 05:27N 27°04' W 079°29'  
2013-Mar-20 23:05N 39°14' W 073°58'814.1
2013-Mar-20 22:32N 39°20' W 073°52'1414.3
2013-Mar-20 21:33N 39°34' W 073°52'1414.2
2013-Mar-20 20:33N 39°48' W 073°51'1414.2
2013-Mar-20 19:33N 40°03' W 073°50'1410.2
2013-Mar-20 18:11N 40°17' W 073°49'5 8.3
2013-Mar-20 17:33N 40°22' W 073°49'8 8.4
2013-Mar-20 16:33N 40°29' W 073°54'1010.2
2013-Mar-20 15:33N 40°37' W 074°03'5 5.0
2013-Mar-20 14:33N 40°39' W 074°09'2 2.2
2013-Mar-20 13:33N 40°42' W 074°08'0 0.0
2013-Mar-20 12:33N 40°42' W 074°08'0 0.0
2013-Mar-20 11:33N 40°42' W 074°08'0 0.0
2013-Mar-20 10:33N 40°42' W 074°08'0 0.0
2013-Mar-20 09:33N 40°42' W 074°08'0 0.0
2013-Mar-20 08:33N 40°42' W 074°08'0 0.0
2013-Mar-20 07:33N 40°42' W 074°08'0 0.0
2013-Mar-20 06:30N 40°42' W 074°08'0 0.0
2013-Mar-20 05:33N 40°42' W 074°08'0 0.0
2013-Mar-20 04:33N 40°42' W 074°08'0 0.0
2013-Mar-20 03:33N 40°42' W 074°08'0 0.0
2013-Mar-20 02:33N 40°42' W 074°08'0 0.0
2013-Mar-20 01:30N 40°42' W 074°08'0 0.0
2013-Mar-20 00:33N 40°42' W 074°08'0 0.0
2013-Mar-19 23:30N 40°42' W 074°08'0 0.0
2013-Mar-19 22:33N 40°42' W 074°08'0 0.0
2013-Mar-19 21:33N 40°42' W 074°08'0 0.0
2013-Mar-19 20:33N 40°42' W 074°08'0 0.0
2013-Mar-19 19:30N 40°42' W 074°08'0 0.0
2013-Mar-19 18:33N 40°42' W 074°08'0 0.0
2013-Mar-19 17:33N 40°42' W 074°08'0 0.0
2013-Mar-19 16:33N 40°42' W 074°08'0 0.0
2013-Mar-19 15:33N 40°42' W 074°08'0 0.0
2013-Mar-19 14:33N 40°42' W 074°08'0 0.0
2013-Mar-19 13:33N 40°42' W 074°08'0 0.0
2013-Mar-19 12:30N 40°42' W 074°08'0 0.0
2013-Mar-19 11:33N 40°42' W 074°08'0 0.0
2013-Mar-19 10:33N 40°42' W 074°08'0 0.0
2013-Mar-19 09:33N 40°42' W 074°08'0 0.0
2013-Mar-19 08:27N 40°42' W 074°08'0 0.0
2013-Mar-19 07:33N 40°42' W 074°08'0 0.0
2013-Mar-19 06:30N 40°42' W 074°08'0 0.0
2013-Mar-19 05:33N 40°42' W 074°08'0 0.0
2013-Mar-19 04:33N 40°42' W 074°08'0 0.0
2013-Mar-19 03:33N 40°42' W 074°08'0 0.0
2013-Mar-19 02:30N 40°42' W 074°08'0 0.0
2013-Mar-19 01:15N 40°42' W 074°08'0 0.0
2013-Mar-19 00:33N 40°42' W 074°08'0 0.0
2013-Mar-18 23:33N 40°42' W 074°08'0 0.0
2013-Mar-18 22:33N 40°42' W 074°08'0 0.0
2013-Mar-18 21:33N 40°42' W 074°08'0 0.0
2013-Mar-18 20:33N 40°42' W 074°08'0 0.0
2013-Mar-18 19:33N 40°42' W 074°08'0 0.0
2013-Mar-18 18:33N 40°42' W 074°08'0 0.0
2013-Mar-18 17:33N 40°42' W 074°08'0 0.0
2013-Mar-18 16:33N 40°42' W 074°08'3 2.7
2013-Mar-18 15:33N 40°39' W 074°09'4 3.8
2013-Mar-18 14:32N 40°38' W 074°04'0 0.1
2013-Mar-18 13:32N 40°38' W 074°04'0 0.0
2013-Mar-18 12:29N 40°38' W 074°04'0 0.0
2013-Mar-18 11:32N 40°38' W 074°04'0 0.0
2013-Mar-18 10:32N 40°38' W 074°04'0 0.0
2013-Mar-18 09:32N 40°38' W 074°04'0 0.0
2013-Mar-18 08:32N 40°38' W 074°04'0 0.2
2013-Mar-18 07:32N 40°38' W 074°04'0 0.1
2013-Mar-18 06:32N 40°38' W 074°04'0 0.0
2013-Mar-18 04:32N 40°38' W 074°04'0 0.1
2013-Mar-18 03:29N 40°38' W 074°04'0 0.2
2013-Mar-18 02:32N 40°38' W 074°04'0 0.0
2013-Mar-18 01:32N 40°38' W 074°04'0 0.0
2013-Mar-18 00:32N 40°38' W 074°04'0 0.0
2013-Mar-17 23:32N 40°38' W 074°04'0 0.0
2013-Mar-17 22:32N 40°38' W 074°04'0 0.0
2013-Mar-17 21:32N 40°38' W 074°04'0 0.0
2013-Mar-17 20:32N 40°38' W 074°04'0 0.0
2013-Mar-17 19:32N 40°38' W 074°04'0 0.1
2013-Mar-17 18:32N 40°38' W 074°04'0 0.0
2013-Mar-17 17:32N 40°38' W 074°04'0 0.0
2013-Mar-17 16:32N 40°38' W 074°04'0 0.0
2013-Mar-17 15:32N 40°38' W 074°04'0 0.1
2013-Mar-17 14:32N 40°38' W 074°04'0 0.0
2013-Mar-17 13:32N 40°38' W 074°04'0 0.0
2013-Mar-17 12:32N 40°38' W 074°04'4 4.0
2013-Mar-17 11:33N 40°35' W 074°02'1110.5
2013-Mar-17 10:33N 40°28' W 073°51'6 5.9
2013-Mar-17 09:31N 40°27' W 073°43'5 4.9
2013-Mar-17 08:29N 40°29' W 073°37'0 0.0
2013-Mar-17 06:29N 40°29' W 073°37'0 0.0
2013-Mar-17 02:26N 40°29' W 073°37'5213.3
2013-Mar-16 22:30N 40°32' W 072°29'1313.8
2013-Mar-16 21:33N 40°31' W 072°12'1514.4
2013-Mar-16 20:30N 40°17' W 072°03'1515.3
2013-Mar-16 19:30N 40°06' W 071°50'1515.3
2013-Mar-16 18:32N 39°55' W 071°38'1515.0
2013-Mar-16 17:33N 39°51' W 071°19'1616.0
2013-Mar-16 16:33N 39°49' W 070°58'1616.2
2013-Mar-16 15:33N 39°48' W 070°37'  

Dump ship's entire track history

sailing weather and tide predictions

Basuto — 9VHS2 — position and weather